sensor_id;sensor_type;location;lat;lon;timestamp;P1;durP1;ratioP1;P2;durP2;ratioP2
35715;SDS011;21840;44.920;8.616;2022-11-22T00:00:35;27.15;;;19.05;;
35715;SDS011;21840;44.920;8.616;2022-11-22T00:03:01;27.20;;;18.92;;
35715;SDS011;21840;44.920;8.616;2022-11-22T00:05:26;27.30;;;18.48;;
35715;SDS011;21840;44.920;8.616;2022-11-22T00:07:51;27.33;;;17.75;;
35715;SDS011;21840;44.920;8.616;2022-11-22T00:10:17;26.10;;;17.60;;
35715;SDS011;21840;44.920;8.616;2022-11-22T00:12:42;26.00;;;17.33;;
35715;SDS011;21840;44.920;8.616;2022-11-22T00:15:09;24.30;;;17.15;;
35715;SDS011;21840;44.920;8.616;2022-11-22T00:17:35;26.13;;;18.20;;
35715;SDS011;21840;44.920;8.616;2022-11-22T00:20:02;28.55;;;18.08;;
35715;SDS011;21840;44.920;8.616;2022-11-22T00:22:29;26.67;;;17.90;;
35715;SDS011;21840;44.920;8.616;2022-11-22T00:24:55;24.98;;;17.50;;
35715;SDS011;21840;44.920;8.616;2022-11-22T00:27:20;27.13;;;17.90;;
35715;SDS011;21840;44.920;8.616;2022-11-22T00:29:46;25.55;;;17.42;;
35715;SDS011;21840;44.920;8.616;2022-11-22T00:32:11;24.92;;;18.58;;
35715;SDS011;21840;44.920;8.616;2022-11-22T00:34:38;25.58;;;19.13;;
35715;SDS011;21840;44.920;8.616;2022-11-22T00:37:03;29.88;;;20.25;;
35715;SDS011;21840;44.920;8.616;2022-11-22T00:39:28;27.92;;;19.50;;
35715;SDS011;21840;44.920;8.616;2022-11-22T00:41:54;30.10;;;21.17;;
35715;SDS011;21840;44.920;8.616;2022-11-22T00:44:19;33.17;;;23.23;;
35715;SDS011;21840;44.920;8.616;2022-11-22T00:46:45;37.47;;;24.90;;
35715;SDS011;21840;44.920;8.616;2022-11-22T00:49:10;34.47;;;23.80;;
35715;SDS011;21840;44.920;8.616;2022-11-22T00:51:36;43.08;;;27.35;;
35715;SDS011;21840;44.920;8.616;2022-11-22T00:54:01;40.85;;;24.95;;
35715;SDS011;21840;44.920;8.616;2022-11-22T00:56:26;33.33;;;23.00;;
35715;SDS011;21840;44.920;8.616;2022-11-22T00:58:56;34.35;;;21.95;;
35715;SDS011;21840;44.920;8.616;2022-11-22T01:01:21;33.10;;;22.02;;
35715;SDS011;21840;44.920;8.616;2022-11-22T01:03:47;30.92;;;21.80;;
35715;SDS011;21840;44.920;8.616;2022-11-22T01:06:15;31.70;;;21.48;;
35715;SDS011;21840;44.920;8.616;2022-11-22T01:08:40;28.17;;;20.33;;
35715;SDS011;21840;44.920;8.616;2022-11-22T01:11:06;32.45;;;20.67;;
35715;SDS011;21840;44.920;8.616;2022-11-22T01:13:31;30.55;;;20.70;;
35715;SDS011;21840;44.920;8.616;2022-11-22T01:15:58;32.70;;;20.48;;
35715;SDS011;21840;44.920;8.616;2022-11-22T01:18:28;28.23;;;19.70;;
35715;SDS011;21840;44.920;8.616;2022-11-22T01:20:53;31.30;;;20.77;;
35715;SDS011;21840;44.920;8.616;2022-11-22T01:23:19;31.90;;;20.25;;
35715;SDS011;21840;44.920;8.616;2022-11-22T01:25:45;26.05;;;18.48;;
35715;SDS011;21840;44.920;8.616;2022-11-22T01:28:10;26.35;;;17.52;;
35715;SDS011;21840;44.920;8.616;2022-11-22T01:30:36;26.13;;;18.30;;
35715;SDS011;21840;44.920;8.616;2022-11-22T01:33:02;23.55;;;16.90;;
35715;SDS011;21840;44.920;8.616;2022-11-22T01:35:28;23.10;;;15.85;;
35715;SDS011;21840;44.920;8.616;2022-11-22T01:37:53;19.20;;;14.02;;
35715;SDS011;21840;44.920;8.616;2022-11-22T01:40:21;19.70;;;13.88;;
35715;SDS011;21840;44.920;8.616;2022-11-22T01:42:48;18.38;;;13.32;;
35715;SDS011;21840;44.920;8.616;2022-11-22T01:50:23;17.23;;;11.85;;
35715;SDS011;21840;44.920;8.616;2022-11-22T01:52:51;17.63;;;11.40;;
35715;SDS011;21840;44.920;8.616;2022-11-22T01:55:18;18.25;;;10.73;;
35715;SDS011;21840;44.920;8.616;2022-11-22T01:57:44;13.13;;;10.25;;
35715;SDS011;21840;44.920;8.616;2022-11-22T02:00:13;14.00;;;9.75;;
35715;SDS011;21840;44.920;8.616;2022-11-22T02:02:44;12.60;;;9.75;;
35715;SDS011;21840;44.920;8.616;2022-11-22T02:05:15;15.88;;;10.32;;
35715;SDS011;21840;44.920;8.616;2022-11-22T02:07:59;14.82;;;11.40;;
35715;SDS011;21840;44.920;8.616;2022-11-22T02:10:34;13.95;;;11.27;;
35715;SDS011;21840;44.920;8.616;2022-11-22T02:13:04;15.32;;;11.02;;
35715;SDS011;21840;44.920;8.616;2022-11-22T02:15:31;14.45;;;11.95;;
35715;SDS011;21840;44.920;8.616;2022-11-22T02:17:57;18.83;;;12.13;;
35715;SDS011;21840;44.920;8.616;2022-11-22T02:20:22;17.15;;;12.35;;
35715;SDS011;21840;44.920;8.616;2022-11-22T02:22:51;23.15;;;13.52;;
35715;SDS011;21840;44.920;8.616;2022-11-22T02:27:51;22.95;;;15.75;;
35715;SDS011;21840;44.920;8.616;2022-11-22T02:30:20;25.08;;;16.73;;
35715;SDS011;21840;44.920;8.616;2022-11-22T02:32:46;24.60;;;16.45;;
35715;SDS011;21840;44.920;8.616;2022-11-22T02:35:22;25.80;;;17.35;;
35715;SDS011;21840;44.920;8.616;2022-11-22T02:37:51;27.17;;;17.80;;
35715;SDS011;21840;44.920;8.616;2022-11-22T02:40:20;27.45;;;18.38;;
35715;SDS011;21840;44.920;8.616;2022-11-22T02:42:47;32.67;;;20.27;;
35715;SDS011;21840;44.920;8.616;2022-11-22T02:45:19;34.70;;;21.58;;
35715;SDS011;21840;44.920;8.616;2022-11-22T02:47:44;34.22;;;22.23;;
35715;SDS011;21840;44.920;8.616;2022-11-22T02:50:10;35.47;;;22.92;;
35715;SDS011;21840;44.920;8.616;2022-11-22T02:52:35;40.65;;;24.52;;
35715;SDS011;21840;44.920;8.616;2022-11-22T02:55:01;47.50;;;28.05;;
35715;SDS011;21840;44.920;8.616;2022-11-22T02:57:27;45.70;;;29.05;;
35715;SDS011;21840;44.920;8.616;2022-11-22T02:59:52;45.58;;;28.70;;
35715;SDS011;21840;44.920;8.616;2022-11-22T03:02:18;51.45;;;30.23;;
35715;SDS011;21840;44.920;8.616;2022-11-22T03:04:43;51.55;;;31.83;;
35715;SDS011;21840;44.920;8.616;2022-11-22T03:07:08;47.53;;;30.38;;
35715;SDS011;21840;44.920;8.616;2022-11-22T03:09:34;54.97;;;32.30;;
35715;SDS011;21840;44.920;8.616;2022-11-22T03:12:00;53.63;;;32.03;;
35715;SDS011;21840;44.920;8.616;2022-11-22T03:14:25;50.85;;;31.40;;
35715;SDS011;21840;44.920;8.616;2022-11-22T03:16:51;53.35;;;31.45;;
35715;SDS011;21840;44.920;8.616;2022-11-22T03:19:17;47.13;;;30.27;;
35715;SDS011;21840;44.920;8.616;2022-11-22T03:21:42;52.55;;;29.63;;
35715;SDS011;21840;44.920;8.616;2022-11-22T03:24:08;46.65;;;28.98;;
35715;SDS011;21840;44.920;8.616;2022-11-22T03:26:34;47.15;;;29.08;;
35715;SDS011;21840;44.920;8.616;2022-11-22T03:29:01;43.70;;;26.15;;
35715;SDS011;21840;44.920;8.616;2022-11-22T03:31:27;41.45;;;26.73;;
35715;SDS011;21840;44.920;8.616;2022-11-22T03:33:52;45.30;;;27.00;;
35715;SDS011;21840;44.920;8.616;2022-11-22T03:36:18;44.17;;;27.77;;
35715;SDS011;21840;44.920;8.616;2022-11-22T03:38:44;46.33;;;26.75;;
35715;SDS011;21840;44.920;8.616;2022-11-22T03:41:09;41.70;;;25.58;;
35715;SDS011;21840;44.920;8.616;2022-11-22T03:43:35;43.78;;;25.95;;
35715;SDS011;21840;44.920;8.616;2022-11-22T03:46:00;37.35;;;22.67;;
35715;SDS011;21840;44.920;8.616;2022-11-22T03:48:26;38.90;;;23.17;;
35715;SDS011;21840;44.920;8.616;2022-11-22T03:50:51;33.10;;;21.10;;
35715;SDS011;21840;44.920;8.616;2022-11-22T03:53:16;37.30;;;23.17;;
35715;SDS011;21840;44.920;8.616;2022-11-22T03:55:42;38.40;;;22.65;;
35715;SDS011;21840;44.920;8.616;2022-11-22T03:58:08;37.70;;;21.70;;
35715;SDS011;21840;44.920;8.616;2022-11-22T04:00:33;35.00;;;21.38;;
35715;SDS011;21840;44.920;8.616;2022-11-22T04:02:59;31.80;;;19.00;;
35715;SDS011;21840;44.920;8.616;2022-11-22T04:05:28;30.08;;;19.40;;
35715;SDS011;21840;44.920;8.616;2022-11-22T04:07:53;32.88;;;20.10;;
35715;SDS011;21840;44.920;8.616;2022-11-22T04:10:22;34.10;;;20.38;;
35715;SDS011;21840;44.920;8.616;2022-11-22T04:12:48;41.20;;;20.77;;
35715;SDS011;21840;44.920;8.616;2022-11-22T04:15:13;33.35;;;20.67;;
35715;SDS011;21840;44.920;8.616;2022-11-22T04:17:41;32.95;;;19.77;;
35715;SDS011;21840;44.920;8.616;2022-11-22T04:23:04;36.05;;;18.85;;
35715;SDS011;21840;44.920;8.616;2022-11-22T04:25:34;31.92;;;19.77;;
35715;SDS011;21840;44.920;8.616;2022-11-22T04:28:01;31.70;;;17.40;;
35715;SDS011;21840;44.920;8.616;2022-11-22T04:30:28;35.58;;;18.70;;
35715;SDS011;21840;44.920;8.616;2022-11-22T04:33:13;32.03;;;20.13;;
35715;SDS011;21840;44.920;8.616;2022-11-22T04:35:39;32.00;;;19.17;;
35715;SDS011;21840;44.920;8.616;2022-11-22T04:38:05;31.13;;;19.23;;
35715;SDS011;21840;44.920;8.616;2022-11-22T04:40:31;34.17;;;19.40;;
35715;SDS011;21840;44.920;8.616;2022-11-22T04:42:57;32.00;;;19.05;;
35715;SDS011;21840;44.920;8.616;2022-11-22T04:45:43;28.35;;;18.10;;
35715;SDS011;21840;44.920;8.616;2022-11-22T04:48:09;26.88;;;17.13;;
35715;SDS011;21840;44.920;8.616;2022-11-22T04:50:36;27.17;;;16.92;;
35715;SDS011;21840;44.920;8.616;2022-11-22T04:53:21;29.95;;;16.77;;
35715;SDS011;21840;44.920;8.616;2022-11-22T04:55:47;30.15;;;17.40;;
35715;SDS011;21840;44.920;8.616;2022-11-22T04:58:12;29.50;;;17.25;;
35715;SDS011;21840;44.920;8.616;2022-11-22T05:00:38;30.70;;;17.35;;
35715;SDS011;21840;44.920;8.616;2022-11-22T05:03:04;26.08;;;15.98;;
35715;SDS011;21840;44.920;8.616;2022-11-22T05:05:33;31.23;;;17.02;;
35715;SDS011;21840;44.920;8.616;2022-11-22T05:08:00;28.02;;;16.13;;
35715;SDS011;21840;44.920;8.616;2022-11-22T05:10:26;22.83;;;14.02;;
35715;SDS011;21840;44.920;8.616;2022-11-22T05:12:51;25.25;;;15.57;;
35715;SDS011;21840;44.920;8.616;2022-11-22T05:15:17;23.73;;;14.65;;
35715;SDS011;21840;44.920;8.616;2022-11-22T05:17:43;23.17;;;13.80;;
35715;SDS011;21840;44.920;8.616;2022-11-22T05:20:08;22.48;;;12.73;;
35715;SDS011;21840;44.920;8.616;2022-11-22T05:22:36;23.05;;;14.15;;
35715;SDS011;21840;44.920;8.616;2022-11-22T05:25:21;23.70;;;14.73;;
35715;SDS011;21840;44.920;8.616;2022-11-22T05:27:46;24.25;;;14.40;;
35715;SDS011;21840;44.920;8.616;2022-11-22T05:30:15;21.52;;;13.85;;
35715;SDS011;21840;44.920;8.616;2022-11-22T05:32:40;21.83;;;14.30;;
35715;SDS011;21840;44.920;8.616;2022-11-22T05:35:06;22.83;;;14.55;;
35715;SDS011;21840;44.920;8.616;2022-11-22T05:37:32;26.23;;;15.75;;
35715;SDS011;21840;44.920;8.616;2022-11-22T05:40:00;29.73;;;14.90;;
35715;SDS011;21840;44.920;8.616;2022-11-22T05:42:25;26.15;;;15.07;;
35715;SDS011;21840;44.920;8.616;2022-11-22T05:44:51;25.02;;;15.60;;
35715;SDS011;21840;44.920;8.616;2022-11-22T05:47:16;23.35;;;14.70;;
35715;SDS011;21840;44.920;8.616;2022-11-22T05:49:42;22.17;;;13.30;;
35715;SDS011;21840;44.920;8.616;2022-11-22T05:52:10;23.10;;;14.00;;
35715;SDS011;21840;44.920;8.616;2022-11-22T05:54:35;21.70;;;13.75;;
35715;SDS011;21840;44.920;8.616;2022-11-22T05:57:01;20.85;;;12.40;;
35715;SDS011;21840;44.920;8.616;2022-11-22T05:59:26;18.38;;;11.88;;
35715;SDS011;21840;44.920;8.616;2022-11-22T06:01:51;18.95;;;11.57;;
35715;SDS011;21840;44.920;8.616;2022-11-22T06:04:17;20.70;;;11.55;;
35715;SDS011;21840;44.920;8.616;2022-11-22T06:06:45;16.33;;;9.90;;
35715;SDS011;21840;44.920;8.616;2022-11-22T06:09:11;19.70;;;9.68;;
35715;SDS011;21840;44.920;8.616;2022-11-22T06:11:36;13.18;;;9.40;;
35715;SDS011;21840;44.920;8.616;2022-11-22T06:14:02;14.73;;;9.10;;
35715;SDS011;21840;44.920;8.616;2022-11-22T06:16:27;14.25;;;9.80;;
35715;SDS011;21840;44.920;8.616;2022-11-22T06:18:53;14.77;;;9.55;;
35715;SDS011;21840;44.920;8.616;2022-11-22T06:21:19;14.73;;;8.27;;
35715;SDS011;21840;44.920;8.616;2022-11-22T06:23:48;12.73;;;8.52;;
35715;SDS011;21840;44.920;8.616;2022-11-22T06:26:15;11.18;;;8.05;;
35715;SDS011;21840;44.920;8.616;2022-11-22T06:28:42;13.80;;;8.82;;
35715;SDS011;21840;44.920;8.616;2022-11-22T06:31:12;16.13;;;8.77;;
35715;SDS011;21840;44.920;8.616;2022-11-22T06:33:39;12.40;;;8.85;;
35715;SDS011;21840;44.920;8.616;2022-11-22T06:36:06;13.10;;;8.15;;
35715;SDS011;21840;44.920;8.616;2022-11-22T06:38:36;12.02;;;8.35;;
35715;SDS011;21840;44.920;8.616;2022-11-22T06:41:05;13.98;;;9.18;;
35715;SDS011;21840;44.920;8.616;2022-11-22T06:43:33;13.70;;;9.05;;
35715;SDS011;21840;44.920;8.616;2022-11-22T06:46:00;14.93;;;9.05;;
35715;SDS011;21840;44.920;8.616;2022-11-22T06:48:31;14.30;;;9.30;;
35715;SDS011;21840;44.920;8.616;2022-11-22T06:50:58;14.25;;;9.63;;
35715;SDS011;21840;44.920;8.616;2022-11-22T06:53:28;16.15;;;10.32;;
35715;SDS011;21840;44.920;8.616;2022-11-22T06:56:11;15.13;;;9.73;;
35715;SDS011;21840;44.920;8.616;2022-11-22T06:58:39;14.50;;;9.70;;
35715;SDS011;21840;44.920;8.616;2022-11-22T07:01:09;15.98;;;10.43;;
35715;SDS011;21840;44.920;8.616;2022-11-22T07:03:37;18.85;;;10.65;;
35715;SDS011;21840;44.920;8.616;2022-11-22T07:06:04;13.85;;;9.73;;
35715;SDS011;21840;44.920;8.616;2022-11-22T07:08:30;15.05;;;9.55;;
35715;SDS011;21840;44.920;8.616;2022-11-22T07:13:53;13.93;;;8.95;;
35715;SDS011;21840;44.920;8.616;2022-11-22T07:16:19;16.55;;;10.35;;
35715;SDS011;21840;44.920;8.616;2022-11-22T07:18:46;15.70;;;9.52;;
35715;SDS011;21840;44.920;8.616;2022-11-22T07:21:13;15.00;;;9.27;;
35715;SDS011;21840;44.920;8.616;2022-11-22T07:23:49;12.52;;;9.02;;
35715;SDS011;21840;44.920;8.616;2022-11-22T07:26:17;13.55;;;9.40;;
35715;SDS011;21840;44.920;8.616;2022-11-22T07:28:43;15.35;;;9.65;;
35715;SDS011;21840;44.920;8.616;2022-11-22T07:31:11;13.60;;;8.38;;
35715;SDS011;21840;44.920;8.616;2022-11-22T07:33:38;13.90;;;8.70;;
35715;SDS011;21840;44.920;8.616;2022-11-22T07:38:30;12.98;;;8.68;;
35715;SDS011;21840;44.920;8.616;2022-11-22T07:40:56;12.35;;;8.52;;
35715;SDS011;21840;44.920;8.616;2022-11-22T07:43:22;15.75;;;8.00;;
35715;SDS011;21840;44.920;8.616;2022-11-22T07:45:47;12.40;;;8.23;;
35715;SDS011;21840;44.920;8.616;2022-11-22T07:48:13;14.70;;;8.65;;
35715;SDS011;21840;44.920;8.616;2022-11-22T07:50:39;12.75;;;8.48;;
35715;SDS011;21840;44.920;8.616;2022-11-22T07:53:05;12.32;;;8.25;;
35715;SDS011;21840;44.920;8.616;2022-11-22T07:55:31;11.85;;;8.40;;
35715;SDS011;21840;44.920;8.616;2022-11-22T07:57:57;10.68;;;7.95;;
35715;SDS011;21840;44.920;8.616;2022-11-22T08:00:24;10.98;;;7.72;;
35715;SDS011;21840;44.920;8.616;2022-11-22T08:02:50;10.75;;;7.53;;
35715;SDS011;21840;44.920;8.616;2022-11-22T08:05:15;10.38;;;7.20;;
35715;SDS011;21840;44.920;8.616;2022-11-22T08:07:48;10.88;;;7.63;;
35715;SDS011;21840;44.920;8.616;2022-11-22T08:10:14;12.45;;;7.38;;
35715;SDS011;21840;44.920;8.616;2022-11-22T08:12:40;9.68;;;6.63;;
35715;SDS011;21840;44.920;8.616;2022-11-22T08:15:06;9.00;;;6.50;;
35715;SDS011;21840;44.920;8.616;2022-11-22T08:17:33;9.57;;;6.07;;
35715;SDS011;21840;44.920;8.616;2022-11-22T08:20:11;8.18;;;5.38;;
35715;SDS011;21840;44.920;8.616;2022-11-22T08:22:37;9.13;;;5.55;;
35715;SDS011;21840;44.920;8.616;2022-11-22T08:25:04;8.90;;;5.82;;
35715;SDS011;21840;44.920;8.616;2022-11-22T08:27:36;8.10;;;5.82;;
35715;SDS011;21840;44.920;8.616;2022-11-22T08:30:06;7.50;;;5.00;;
35715;SDS011;21840;44.920;8.616;2022-11-22T08:32:32;7.75;;;5.20;;
35715;SDS011;21840;44.920;8.616;2022-11-22T08:34:58;7.15;;;4.95;;
35715;SDS011;21840;44.920;8.616;2022-11-22T08:37:24;6.72;;;5.18;;
35715;SDS011;21840;44.920;8.616;2022-11-22T08:39:49;6.88;;;4.93;;
35715;SDS011;21840;44.920;8.616;2022-11-22T08:42:15;7.20;;;4.65;;
35715;SDS011;21840;44.920;8.616;2022-11-22T08:44:40;8.13;;;5.80;;
35715;SDS011;21840;44.920;8.616;2022-11-22T08:47:06;9.85;;;5.35;;
35715;SDS011;21840;44.920;8.616;2022-11-22T08:49:31;8.48;;;5.18;;
35715;SDS011;21840;44.920;8.616;2022-11-22T08:51:57;9.07;;;5.50;;
35715;SDS011;21840;44.920;8.616;2022-11-22T08:54:22;10.15;;;6.22;;
35715;SDS011;21840;44.920;8.616;2022-11-22T08:56:48;7.97;;;5.78;;
35715;SDS011;21840;44.920;8.616;2022-11-22T08:59:13;9.38;;;6.43;;
35715;SDS011;21840;44.920;8.616;2022-11-22T09:01:38;10.30;;;6.30;;
35715;SDS011;21840;44.920;8.616;2022-11-22T09:04:04;10.43;;;7.55;;
35715;SDS011;21840;44.920;8.616;2022-11-22T09:06:29;10.57;;;7.70;;
35715;SDS011;21840;44.920;8.616;2022-11-22T09:08:55;9.25;;;7.22;;
35715;SDS011;21840;44.920;8.616;2022-11-22T09:11:21;10.15;;;6.22;;
35715;SDS011;21840;44.920;8.616;2022-11-22T09:13:46;10.80;;;7.20;;
35715;SDS011;21840;44.920;8.616;2022-11-22T09:16:13;9.40;;;6.47;;
35715;SDS011;21840;44.920;8.616;2022-11-22T09:18:40;8.35;;;6.43;;
35715;SDS011;21840;44.920;8.616;2022-11-22T09:21:07;9.18;;;6.13;;
35715;SDS011;21840;44.920;8.616;2022-11-22T09:23:34;11.30;;;6.63;;
35715;SDS011;21840;44.920;8.616;2022-11-22T09:26:04;11.10;;;7.05;;
35715;SDS011;21840;44.920;8.616;2022-11-22T09:28:32;10.70;;;6.50;;
35715;SDS011;21840;44.920;8.616;2022-11-22T09:31:02;10.43;;;6.38;;
35715;SDS011;21840;44.920;8.616;2022-11-22T09:33:29;10.25;;;7.35;;
35715;SDS011;21840;44.920;8.616;2022-11-22T09:36:02;11.13;;;7.55;;
35715;SDS011;21840;44.920;8.616;2022-11-22T09:38:30;11.85;;;8.23;;
35715;SDS011;21840;44.920;8.616;2022-11-22T09:40:56;15.35;;;9.43;;
35715;SDS011;21840;44.920;8.616;2022-11-22T09:43:35;14.20;;;10.05;;
35715;SDS011;21840;44.920;8.616;2022-11-22T09:46:25;15.93;;;11.00;;
35715;SDS011;21840;44.920;8.616;2022-11-22T09:48:59;18.45;;;12.13;;
35715;SDS011;21840;44.920;8.616;2022-11-22T09:51:36;18.27;;;12.45;;
35715;SDS011;21840;44.920;8.616;2022-11-22T09:54:09;21.37;;;14.90;;
35715;SDS011;21840;44.920;8.616;2022-11-22T09:56:38;19.40;;;13.40;;
35715;SDS011;21840;44.920;8.616;2022-11-22T09:59:08;19.30;;;13.45;;
35715;SDS011;21840;44.920;8.616;2022-11-22T10:01:44;21.05;;;14.30;;
35715;SDS011;21840;44.920;8.616;2022-11-22T10:04:21;21.33;;;14.23;;
35715;SDS011;21840;44.920;8.616;2022-11-22T10:06:58;20.40;;;13.52;;
35715;SDS011;21840;44.920;8.616;2022-11-22T10:09:40;23.95;;;15.57;;
35715;SDS011;21840;44.920;8.616;2022-11-22T10:12:17;21.08;;;14.13;;
35715;SDS011;21840;44.920;8.616;2022-11-22T10:15:14;19.98;;;14.32;;
35715;SDS011;21840;44.920;8.616;2022-11-22T10:17:53;20.35;;;13.18;;
35715;SDS011;21840;44.920;8.616;2022-11-22T10:20:27;20.55;;;13.82;;
35715;SDS011;21840;44.920;8.616;2022-11-22T10:22:54;19.75;;;13.02;;
35715;SDS011;21840;44.920;8.616;2022-11-22T10:25:39;22.13;;;14.63;;
35715;SDS011;21840;44.920;8.616;2022-11-22T10:28:51;20.23;;;14.80;;
35715;SDS011;21840;44.920;8.616;2022-11-22T10:33:33;23.10;;;14.88;;
35715;SDS011;21840;44.920;8.616;2022-11-22T10:44:36;18.83;;;14.30;;
35715;SDS011;21840;44.920;8.616;2022-11-22T10:50:02;22.63;;;14.52;;
35715;SDS011;21840;44.920;8.616;2022-11-22T11:01:32;19.17;;;12.65;;
35715;SDS011;21840;44.920;8.616;2022-11-22T11:04:19;18.38;;;12.82;;
35715;SDS011;21840;44.920;8.616;2022-11-22T11:06:48;20.35;;;12.65;;
35715;SDS011;21840;44.920;8.616;2022-11-22T11:11:59;20.60;;;12.63;;
35715;SDS011;21840;44.920;8.616;2022-11-22T11:14:38;21.23;;;13.35;;
35715;SDS011;21840;44.920;8.616;2022-11-22T11:17:10;19.92;;;12.85;;
35715;SDS011;21840;44.920;8.616;2022-11-22T11:19:41;20.58;;;12.88;;
35715;SDS011;21840;44.920;8.616;2022-11-22T11:22:15;18.02;;;11.75;;
35715;SDS011;21840;44.920;8.616;2022-11-22T11:24:43;19.50;;;12.10;;
35715;SDS011;21840;44.920;8.616;2022-11-22T11:27:09;19.55;;;13.57;;
35715;SDS011;21840;44.920;8.616;2022-11-22T11:29:46;24.48;;;13.23;;
35715;SDS011;21840;44.920;8.616;2022-11-22T11:32:18;17.48;;;12.43;;
35715;SDS011;21840;44.920;8.616;2022-11-22T11:34:52;23.42;;;13.32;;
35715;SDS011;21840;44.920;8.616;2022-11-22T11:37:34;15.68;;;11.77;;
35715;SDS011;21840;44.920;8.616;2022-11-22T11:40:05;19.25;;;12.57;;
35715;SDS011;21840;44.920;8.616;2022-11-22T11:46:02;19.35;;;13.02;;
35715;SDS011;21840;44.920;8.616;2022-11-22T11:48:40;17.63;;;11.30;;
35715;SDS011;21840;44.920;8.616;2022-11-22T11:53:42;18.73;;;11.88;;
35715;SDS011;21840;44.920;8.616;2022-11-22T11:56:27;19.92;;;12.38;;
35715;SDS011;21840;44.920;8.616;2022-11-22T11:58:58;17.05;;;12.27;;
35715;SDS011;21840;44.920;8.616;2022-11-22T12:01:27;23.10;;;12.10;;
35715;SDS011;21840;44.920;8.616;2022-11-22T12:03:57;15.60;;;11.48;;
35715;SDS011;21840;44.920;8.616;2022-11-22T12:06:27;15.23;;;10.55;;
35715;SDS011;21840;44.920;8.616;2022-11-22T12:08:54;13.25;;;10.02;;
35715;SDS011;21840;44.920;8.616;2022-11-22T12:11:37;14.55;;;10.77;;
35715;SDS011;21840;44.920;8.616;2022-11-22T12:14:10;16.20;;;10.85;;
35715;SDS011;21840;44.920;8.616;2022-11-22T12:16:42;17.08;;;10.35;;
35715;SDS011;21840;44.920;8.616;2022-11-22T12:21:58;16.40;;;12.25;;
35715;SDS011;21840;44.920;8.616;2022-11-22T12:27:17;16.60;;;11.50;;
35715;SDS011;21840;44.920;8.616;2022-11-22T12:29:43;18.67;;;11.23;;
35715;SDS011;21840;44.920;8.616;2022-11-22T12:32:13;14.35;;;11.20;;
35715;SDS011;21840;44.920;8.616;2022-11-22T12:34:53;15.27;;;11.57;;
35715;SDS011;21840;44.920;8.616;2022-11-22T12:37:35;16.60;;;11.43;;
35715;SDS011;21840;44.920;8.616;2022-11-22T12:40:05;13.38;;;10.20;;
35715;SDS011;21840;44.920;8.616;2022-11-22T12:42:42;15.13;;;10.98;;
35715;SDS011;21840;44.920;8.616;2022-11-22T12:45:21;17.10;;;12.15;;
35715;SDS011;21840;44.920;8.616;2022-11-22T12:47:48;15.93;;;10.93;;
35715;SDS011;21840;44.920;8.616;2022-11-22T12:53:06;13.05;;;9.25;;
35715;SDS011;21840;44.920;8.616;2022-11-22T12:58:31;13.93;;;9.45;;
35715;SDS011;21840;44.920;8.616;2022-11-22T13:04:20;13.88;;;9.55;;
35715;SDS011;21840;44.920;8.616;2022-11-22T13:06:36;14.93;;;9.88;;
35715;SDS011;21840;44.920;8.616;2022-11-22T13:09:11;17.15;;;10.65;;
35715;SDS011;21840;44.920;8.616;2022-11-22T13:12:02;14.93;;;10.57;;
35715;SDS011;21840;44.920;8.616;2022-11-22T13:17:11;15.68;;;10.77;;
35715;SDS011;21840;44.920;8.616;2022-11-22T13:20:02;18.23;;;11.23;;
35715;SDS011;21840;44.920;8.616;2022-11-22T13:25:55;15.27;;;10.93;;
35715;SDS011;21840;44.920;8.616;2022-11-22T13:28:19;14.40;;;10.52;;
35715;SDS011;21840;44.920;8.616;2022-11-22T13:33:39;15.75;;;11.23;;
35715;SDS011;21840;44.920;8.616;2022-11-22T13:39:04;17.58;;;10.75;;
35715;SDS011;21840;44.920;8.616;2022-11-22T13:41:38;15.13;;;10.32;;
35715;SDS011;21840;44.920;8.616;2022-11-22T13:44:52;19.85;;;11.32;;
35715;SDS011;21840;44.920;8.616;2022-11-22T13:47:20;17.77;;;9.77;;
35715;SDS011;21840;44.920;8.616;2022-11-22T13:50:37;13.07;;;9.68;;
35715;SDS011;21840;44.920;8.616;2022-11-22T13:55:45;17.50;;;10.55;;
35715;SDS011;21840;44.920;8.616;2022-11-22T14:00:52;15.38;;;10.43;;
35715;SDS011;21840;44.920;8.616;2022-11-22T14:03:22;13.52;;;9.63;;
35715;SDS011;21840;44.920;8.616;2022-11-22T14:06:13;10.20;;;8.25;;
35715;SDS011;21840;44.920;8.616;2022-11-22T14:08:46;10.73;;;8.25;;
35715;SDS011;21840;44.920;8.616;2022-11-22T14:11:23;12.38;;;8.80;;
35715;SDS011;21840;44.920;8.616;2022-11-22T14:17:15;10.95;;;8.13;;
35715;SDS011;21840;44.920;8.616;2022-11-22T14:23:10;12.07;;;8.80;;
35715;SDS011;21840;44.920;8.616;2022-11-22T14:26:00;12.98;;;8.77;;
35715;SDS011;21840;44.920;8.616;2022-11-22T14:28:57;13.52;;;9.75;;
35715;SDS011;21840;44.920;8.616;2022-11-22T14:31:30;13.20;;;10.25;;
35715;SDS011;21840;44.920;8.616;2022-11-22T14:34:19;14.05;;;10.18;;
35715;SDS011;21840;44.920;8.616;2022-11-22T14:36:45;17.80;;;9.45;;
35715;SDS011;21840;44.920;8.616;2022-11-22T14:45:03;12.10;;;8.10;;
35715;SDS011;21840;44.920;8.616;2022-11-22T14:50:26;9.73;;;6.80;;
35715;SDS011;21840;44.920;8.616;2022-11-22T14:55:35;11.48;;;7.13;;
35715;SDS011;21840;44.920;8.616;2022-11-22T14:58:05;17.65;;;8.00;;
35715;SDS011;21840;44.920;8.616;2022-11-22T15:00:42;10.48;;;7.78;;
35715;SDS011;21840;44.920;8.616;2022-11-22T15:05:54;10.93;;;7.70;;
35715;SDS011;21840;44.920;8.616;2022-11-22T15:17:43;16.83;;;9.75;;
35715;SDS011;21840;44.920;8.616;2022-11-22T15:23:23;15.70;;;9.23;;
35715;SDS011;21840;44.920;8.616;2022-11-22T15:26:11;16.60;;;9.93;;
35715;SDS011;21840;44.920;8.616;2022-11-22T15:29:15;16.55;;;10.05;;
35715;SDS011;21840;44.920;8.616;2022-11-22T15:31:33;15.98;;;10.45;;
35715;SDS011;21840;44.920;8.616;2022-11-22T15:34:00;15.40;;;10.43;;
35715;SDS011;21840;44.920;8.616;2022-11-22T15:39:40;18.05;;;10.85;;
35715;SDS011;21840;44.920;8.616;2022-11-22T15:42:13;23.30;;;11.52;;
35715;SDS011;21840;44.920;8.616;2022-11-22T15:44:40;18.08;;;10.90;;
35715;SDS011;21840;44.920;8.616;2022-11-22T15:47:11;17.23;;;10.75;;
35715;SDS011;21840;44.920;8.616;2022-11-22T15:49:41;15.20;;;9.75;;
35715;SDS011;21840;44.920;8.616;2022-11-22T15:52:23;15.02;;;10.38;;
35715;SDS011;21840;44.920;8.616;2022-11-22T15:54:54;14.95;;;9.73;;
35715;SDS011;21840;44.920;8.616;2022-11-22T15:57:25;15.10;;;10.25;;
35715;SDS011;21840;44.920;8.616;2022-11-22T15:59:55;15.90;;;10.93;;
35715;SDS011;21840;44.920;8.616;2022-11-22T16:02:27;18.98;;;11.00;;
35715;SDS011;21840;44.920;8.616;2022-11-22T16:04:57;19.25;;;11.15;;
35715;SDS011;21840;44.920;8.616;2022-11-22T16:10:04;18.42;;;11.60;;
35715;SDS011;21840;44.920;8.616;2022-11-22T16:12:41;16.33;;;11.32;;
35715;SDS011;21840;44.920;8.616;2022-11-22T16:17:50;16.80;;;11.15;;
35715;SDS011;21840;44.920;8.616;2022-11-22T16:20:40;16.67;;;10.07;;
35715;SDS011;21840;44.920;8.616;2022-11-22T16:25:36;17.17;;;10.93;;
35715;SDS011;21840;44.920;8.616;2022-11-22T16:30:44;16.02;;;10.68;;
35715;SDS011;21840;44.920;8.616;2022-11-22T16:33:11;18.02;;;11.07;;
35715;SDS011;21840;44.920;8.616;2022-11-22T16:35:39;17.67;;;10.80;;
35715;SDS011;21840;44.920;8.616;2022-11-22T16:38:05;19.35;;;11.75;;
35715;SDS011;21840;44.920;8.616;2022-11-22T16:40:40;16.88;;;11.13;;
35715;SDS011;21840;44.920;8.616;2022-11-22T16:43:16;15.57;;;11.25;;
35715;SDS011;21840;44.920;8.616;2022-11-22T16:45:44;21.30;;;10.85;;